createdAt,value
2019-03-30T00:01:10.310Z,15.27
2019-03-30T00:03:40.390Z,17.05
2019-03-30T00:06:10.609Z,16.80
2019-03-30T00:08:40.721Z,17.57
2019-03-30T00:11:10.888Z,16.85
2019-03-30T00:13:40.990Z,17.70
2019-03-30T00:16:11.125Z,17.95
2019-03-30T00:18:41.600Z,18.02
2019-03-30T00:21:11.822Z,18.10
2019-03-30T00:23:41.948Z,18.82
2019-03-30T00:26:12.395Z,18.48
2019-03-30T00:28:42.488Z,18.15
2019-03-30T00:31:12.548Z,17.92
2019-03-30T00:33:42.778Z,19.20
2019-03-30T00:36:12.990Z,18.37
2019-03-30T00:38:43.060Z,17.98
2019-03-30T00:41:13.321Z,17.98
2019-03-30T00:43:43.409Z,18.25
2019-03-30T00:46:13.635Z,18.27
2019-03-30T00:48:43.646Z,18.07
2019-03-30T00:51:13.936Z,18.92
2019-03-30T00:53:44.208Z,17.67
2019-03-30T00:56:14.315Z,16.60
2019-03-30T00:58:44.733Z,17.20
2019-03-30T01:01:15.009Z,16.32
2019-03-30T01:03:45.151Z,16.23
2019-03-30T01:06:15.329Z,16.55
2019-03-30T01:08:45.480Z,15.93
2019-03-30T01:11:15.764Z,16.80
2019-03-30T01:13:45.827Z,17.45
2019-03-30T01:16:16.138Z,18.37
2019-03-30T01:18:46.211Z,17.70
2019-03-30T01:21:16.403Z,17.10
2019-03-30T01:23:46.455Z,16.85
2019-03-30T01:26:16.879Z,17.95
2019-03-30T01:28:47.191Z,17.45
2019-03-30T01:31:17.320Z,17.98
2019-03-30T01:33:47.437Z,17.87
2019-03-30T01:36:17.551Z,17.45
2019-03-30T01:38:47.664Z,15.90
2019-03-30T01:41:17.963Z,17.55
2019-03-30T01:43:48.000Z,17.82
2019-03-30T01:46:18.064Z,18.25
2019-03-30T01:48:48.133Z,18.80
2019-03-30T01:51:18.208Z,17.10
2019-03-30T01:53:48.239Z,17.40
2019-03-30T01:56:18.285Z,18.32
2019-03-30T01:58:48.412Z,18.85
2019-03-30T02:01:18.647Z,18.40
2019-03-30T02:03:48.765Z,19.50
2019-03-30T02:06:18.842Z,18.12
2019-03-30T02:08:48.925Z,17.20
2019-03-30T02:11:19.001Z,17.05
2019-03-30T02:13:49.124Z,16.97
2019-03-30T02:16:19.234Z,17.95
2019-03-30T02:18:49.484Z,17.65
2019-03-30T02:21:19.635Z,18.40
2019-03-30T02:23:49.853Z,18.52
2019-03-30T02:26:19.916Z,18.30
2019-03-30T02:28:49.932Z,19.65
2019-03-30T02:31:19.972Z,19.20
2019-03-30T02:33:50.066Z,19.55
2019-03-30T02:36:20.288Z,19.90
2019-03-30T02:38:50.592Z,20.10
2019-03-30T02:41:20.610Z,21.27
2019-03-30T02:43:51.181Z,18.00
2019-03-30T02:46:21.268Z,18.70
2019-03-30T02:48:51.457Z,19.23
2019-03-30T02:51:21.507Z,19.17
2019-03-30T02:53:51.621Z,20.52
2019-03-30T02:56:21.681Z,21.00
2019-03-30T02:58:51.774Z,18.82
2019-03-30T03:01:25.640Z,19.32
2019-03-30T03:03:56.618Z,19.35
2019-03-30T03:06:26.683Z,19.67
2019-03-30T03:08:56.776Z,19.27
2019-03-30T03:11:26.876Z,18.95
2019-03-30T03:13:57.055Z,19.70
2019-03-30T03:16:27.681Z,19.12
2019-03-30T03:18:58.074Z,20.65
2019-03-30T03:21:28.245Z,20.40
2019-03-30T03:23:58.392Z,20.20
2019-03-30T03:26:28.786Z,19.25
2019-03-30T03:28:58.890Z,20.15
2019-03-30T03:31:29.038Z,19.75
2019-03-30T03:33:59.225Z,19.23
2019-03-30T03:36:29.428Z,18.52
2019-03-30T03:38:59.512Z,19.60
2019-03-30T03:41:29.567Z,19.50
2019-03-30T03:43:59.764Z,18.98
2019-03-30T03:46:29.859Z,19.15
2019-03-30T03:48:59.896Z,18.73
2019-03-30T03:51:30.854Z,18.45
2019-03-30T03:54:01.777Z,19.23
2019-03-30T03:56:34.011Z,20.08
2019-03-30T03:59:05.586Z,19.77
2019-03-30T04:01:38.019Z,19.90
2019-03-30T04:04:11.121Z,19.82
2019-03-30T04:06:41.419Z,20.43
2019-03-30T04:09:12.290Z,20.12
2019-03-30T04:11:43.633Z,18.50
2019-03-30T04:14:16.895Z,19.52
2019-03-30T04:16:47.013Z,20.02
2019-03-30T04:19:17.092Z,20.02
2019-03-30T04:21:47.168Z,21.42
2019-03-30T04:24:17.298Z,19.80
2019-03-30T04:26:47.418Z,20.80
2019-03-30T04:29:17.806Z,20.72
2019-03-30T04:31:48.153Z,19.98
2019-03-30T04:34:19.182Z,20.45
2019-03-30T04:36:49.331Z,21.10
2019-03-30T04:39:19.459Z,18.95
2019-03-30T04:41:49.665Z,19.25
2019-03-30T04:44:19.786Z,19.52
2019-03-30T04:46:49.893Z,19.50
2019-03-30T04:49:20.024Z,19.45
2019-03-30T04:51:57.581Z,19.62
2019-03-30T04:54:21.885Z,18.32
2019-03-30T04:56:51.991Z,17.98
2019-03-30T04:59:22.085Z,19.45
2019-03-30T05:01:52.198Z,19.30
2019-03-30T05:04:22.382Z,19.10
2019-03-30T05:06:52.445Z,20.30
2019-03-30T05:09:22.480Z,19.12
2019-03-30T05:11:52.545Z,19.85
2019-03-30T05:14:22.705Z,19.80
2019-03-30T05:16:52.878Z,19.60
2019-03-30T05:19:22.962Z,20.50
2019-03-30T05:21:53.336Z,20.17
2019-03-30T05:24:23.385Z,22.65
2019-03-30T05:26:53.430Z,19.37
2019-03-30T05:29:23.877Z,18.55
2019-03-30T05:31:53.910Z,20.30
2019-03-30T05:34:23.972Z,21.48
2019-03-30T05:37:29.372Z,20.80
2019-03-30T05:39:59.542Z,21.27
2019-03-30T05:42:29.612Z,20.77
2019-03-30T05:45:00.150Z,21.70
2019-03-30T05:47:30.502Z,19.92
2019-03-30T05:50:00.817Z,20.20
2019-03-30T05:52:31.069Z,20.62
2019-03-30T05:55:01.105Z,21.55
2019-03-30T05:57:31.166Z,19.80
2019-03-30T06:00:01.303Z,19.27
2019-03-30T06:02:37.039Z,18.95
2019-03-30T06:05:07.176Z,18.77
2019-03-30T06:07:37.209Z,19.30
2019-03-30T06:10:07.692Z,18.32
2019-03-30T06:12:37.881Z,19.07
2019-03-30T06:15:25.521Z,16.95
2019-03-30T06:17:55.626Z,18.23
2019-03-30T06:20:25.720Z,16.95
2019-03-30T06:22:55.796Z,18.75
2019-03-30T06:25:43.970Z,18.10
2019-03-30T06:28:14.037Z,18.12
2019-03-30T06:30:44.170Z,16.87
2019-03-30T06:33:14.216Z,17.48
2019-03-30T06:35:44.528Z,16.42
2019-03-30T06:38:14.704Z,16.40
2019-03-30T06:40:44.789Z,14.83
2019-03-30T06:43:14.893Z,16.00
2019-03-30T06:45:44.962Z,15.50
2019-03-30T06:48:15.075Z,15.43
2019-03-30T06:50:45.132Z,14.70
2019-03-30T06:53:15.220Z,15.98
2019-03-30T06:55:45.293Z,15.10
2019-03-30T06:58:15.747Z,15.55
2019-03-30T07:00:48.023Z,14.43
2019-03-30T07:03:18.186Z,14.37
2019-03-30T07:05:48.229Z,15.10
2019-03-30T07:08:18.591Z,14.87
2019-03-30T07:10:49.609Z,14.40
2019-03-30T07:13:19.749Z,15.27
2019-03-30T07:15:51.110Z,14.50
2019-03-30T07:18:40.443Z,13.50
2019-03-30T07:21:10.648Z,14.80
2019-03-30T07:23:41.133Z,15.03
2019-03-30T07:26:11.315Z,13.27
2019-03-30T07:28:41.481Z,14.90
2019-03-30T07:31:11.621Z,13.60
2019-03-30T07:33:41.714Z,14.07
2019-03-30T07:36:12.103Z,14.47
2019-03-30T07:38:42.297Z,14.03
2019-03-30T07:41:12.480Z,13.40
2019-03-30T07:43:42.589Z,14.50
2019-03-30T07:46:12.602Z,14.70
2019-03-30T07:48:42.691Z,15.33
2019-03-30T07:51:12.968Z,14.50
2019-03-30T07:53:44.886Z,15.30
2019-03-30T07:56:14.956Z,15.63
2019-03-30T07:58:45.003Z,17.27
2019-03-30T08:01:15.090Z,20.50
2019-03-30T08:03:45.376Z,16.87
2019-03-30T08:06:15.557Z,16.50
2019-03-30T08:08:45.654Z,15.60
2019-03-30T08:11:15.841Z,16.63
2019-03-30T08:13:46.087Z,15.00
2019-03-30T08:16:16.120Z,14.50
2019-03-30T08:18:46.566Z,13.77
2019-03-30T08:21:16.641Z,14.70
2019-03-30T08:23:46.696Z,13.93
2019-03-30T08:26:54.278Z,14.10
2019-03-30T08:29:24.502Z,14.17
2019-03-30T08:31:54.624Z,13.27
2019-03-30T08:34:24.664Z,13.10
2019-03-30T08:36:54.886Z,14.37
2019-03-30T08:39:25.136Z,12.97
2019-03-30T08:41:55.288Z,13.80
2019-03-30T08:44:25.621Z,13.60
2019-03-30T08:46:55.862Z,13.83
2019-03-30T08:49:26.365Z,13.17
2019-03-30T08:51:56.481Z,13.80
2019-03-30T08:54:26.509Z,12.60
2019-03-30T08:56:56.593Z,12.80
2019-03-30T08:59:26.773Z,12.80
2019-03-30T09:01:56.869Z,12.00
2019-03-30T09:04:26.933Z,12.37
2019-03-30T09:06:57.016Z,13.20
2019-03-30T09:09:27.101Z,13.13
2019-03-30T09:11:57.172Z,12.00
2019-03-30T09:14:27.362Z,13.03
2019-03-30T09:16:57.683Z,13.37
2019-03-30T09:19:27.693Z,13.00
2019-03-30T09:21:58.008Z,12.20
2019-03-30T09:24:28.033Z,12.90
2019-03-30T09:26:58.547Z,12.23
2019-03-30T09:29:28.588Z,13.33
2019-03-30T09:32:13.260Z,12.70
2019-03-30T09:34:30.970Z,12.70
2019-03-30T09:37:01.380Z,13.33
2019-03-30T09:39:31.505Z,12.13
2019-03-30T09:42:01.592Z,12.37
2019-03-30T09:44:31.908Z,12.43
2019-03-30T09:47:02.082Z,11.90
2019-03-30T09:49:32.108Z,12.27
2019-03-30T09:52:02.152Z,12.67
2019-03-30T09:54:32.218Z,12.40
2019-03-30T09:57:02.771Z,12.60
2019-03-30T09:59:32.897Z,11.97
2019-03-30T10:02:03.133Z,12.13
2019-03-30T10:04:33.260Z,12.80
2019-03-30T10:07:03.346Z,13.70
2019-03-30T10:09:33.507Z,12.30
2019-03-30T10:12:03.570Z,12.27
2019-03-30T10:14:33.610Z,12.57
2019-03-30T10:17:03.775Z,12.00
2019-03-30T10:19:33.925Z,11.87
2019-03-30T10:22:23.561Z,10.77
2019-03-30T10:24:53.969Z,10.70
2019-03-30T10:27:23.974Z,8.63
2019-03-30T10:29:54.322Z,9.00
2019-03-30T10:32:24.317Z,10.07
2019-03-30T10:34:54.553Z,9.70
2019-03-30T10:37:24.653Z,9.33
2019-03-30T10:39:54.723Z,9.60
2019-03-30T10:42:24.858Z,8.20
2019-03-30T10:44:54.955Z,8.10
2019-03-30T10:47:24.964Z,9.13
2019-03-30T10:49:55.057Z,8.50
2019-03-30T10:52:25.000Z,9.50
2019-03-30T10:54:55.123Z,8.77
2019-03-30T10:57:25.107Z,9.63
2019-03-30T10:59:55.286Z,8.37
2019-03-30T11:02:25.344Z,7.27
2019-03-30T11:04:55.358Z,7.90
2019-03-30T11:07:25.509Z,7.73
2019-03-30T11:09:55.972Z,7.23
2019-03-30T11:12:26.465Z,8.43
2019-03-30T11:14:56.465Z,6.53
2019-03-30T11:17:26.565Z,7.70
2019-03-30T11:19:56.581Z,8.30
2019-03-30T11:22:26.740Z,8.13
2019-03-30T11:25:07.333Z,7.30
2019-03-30T11:27:28.557Z,7.87
2019-03-30T11:29:58.637Z,7.10
2019-03-30T11:32:28.650Z,7.30
2019-03-30T11:34:58.632Z,7.03
2019-03-30T11:37:28.637Z,7.60
2019-03-30T11:39:58.584Z,7.87
2019-03-30T11:42:28.624Z,6.83
2019-03-30T11:44:58.814Z,6.70
2019-03-30T11:47:30.993Z,6.80
2019-03-30T11:50:01.221Z,6.90
2019-03-30T11:52:31.297Z,7.20
2019-03-30T11:55:01.262Z,5.90
2019-03-30T11:57:31.350Z,6.57
2019-03-30T12:00:01.427Z,5.90
2019-03-30T12:02:31.477Z,6.53
2019-03-30T12:05:01.458Z,6.00
2019-03-30T12:07:31.606Z,6.00
2019-03-30T12:10:01.625Z,5.97
2019-03-30T12:12:31.646Z,5.47
2019-03-30T12:15:01.764Z,5.73
2019-03-30T12:17:31.877Z,6.27
2019-03-30T12:20:01.875Z,6.10
2019-03-30T12:22:31.979Z,6.03
2019-03-30T12:25:01.999Z,5.63
2019-03-30T12:27:32.084Z,6.33
2019-03-30T12:30:02.082Z,6.50
2019-03-30T12:32:32.369Z,5.80
2019-03-30T12:35:02.589Z,5.13
2019-03-30T12:37:32.665Z,5.70
2019-03-30T12:40:02.735Z,5.13
2019-03-30T12:42:32.795Z,5.53
2019-03-30T12:45:02.851Z,5.47
2019-03-30T12:47:32.917Z,5.40
2019-03-30T12:50:02.950Z,5.47
2019-03-30T12:52:33.040Z,5.00
2019-03-30T12:55:03.128Z,4.90
2019-03-30T12:57:33.754Z,5.20
2019-03-30T13:00:03.965Z,4.83
2019-03-30T13:02:33.993Z,5.23
2019-03-30T13:05:07.353Z,5.53
2019-03-30T13:07:35.751Z,5.13
2019-03-30T13:10:06.635Z,5.03
2019-03-30T13:12:36.724Z,5.20
2019-03-30T13:15:07.464Z,5.60
2019-03-30T13:17:37.607Z,4.90
2019-03-30T13:20:08.509Z,5.07
2019-03-30T13:22:38.531Z,5.30
2019-03-30T13:25:08.974Z,5.13
2019-03-30T13:27:38.971Z,5.00
2019-03-30T13:30:10.947Z,4.87
2019-03-30T13:32:41.000Z,5.10
2019-03-30T13:35:11.028Z,5.57
2019-03-30T13:37:41.438Z,4.83
2019-03-30T13:40:11.736Z,5.13
2019-03-30T13:42:42.829Z,5.03
2019-03-30T13:45:13.116Z,5.10
2019-03-30T13:48:00.932Z,5.53
2019-03-30T13:50:31.214Z,4.83
2019-03-30T13:53:01.445Z,6.10
2019-03-30T13:55:31.577Z,5.80
2019-03-30T13:58:01.609Z,5.10
2019-03-30T14:00:31.928Z,5.43
2019-03-30T14:03:01.987Z,5.30
2019-03-30T14:05:33.080Z,5.70
2019-03-30T14:08:20.950Z,4.60
2019-03-30T14:10:51.087Z,5.37
2019-03-30T14:13:21.157Z,5.67
2019-03-30T14:15:51.156Z,6.13
2019-03-30T14:18:22.029Z,6.20
2019-03-30T14:20:52.082Z,5.20
2019-03-30T14:23:22.156Z,5.50
2019-03-30T14:25:52.201Z,6.00
2019-03-30T14:28:22.214Z,6.03
2019-03-30T14:30:52.339Z,6.27
2019-03-30T14:33:22.531Z,5.00
2019-03-30T14:35:52.618Z,5.30
2019-03-30T14:38:22.752Z,6.30
2019-03-30T14:40:52.858Z,5.57
2019-03-30T14:43:23.019Z,5.83
2019-03-30T14:45:53.050Z,5.40
2019-03-30T14:48:23.146Z,5.37
2019-03-30T14:50:53.221Z,5.10
2019-03-30T14:53:23.343Z,5.57
2019-03-30T14:55:53.517Z,5.80
2019-03-30T14:58:23.777Z,4.90
2019-03-30T15:00:53.820Z,6.23
2019-03-30T15:03:24.562Z,5.80
2019-03-30T15:05:54.616Z,5.70
2019-03-30T15:08:24.784Z,5.77
2019-03-30T15:10:54.857Z,4.57
2019-03-30T15:13:24.999Z,5.10
2019-03-30T15:15:55.485Z,5.60
2019-03-30T15:18:25.608Z,5.83
2019-03-30T15:20:56.033Z,6.20
2019-03-30T15:23:27.194Z,5.73
2019-03-30T15:25:57.544Z,5.93
2019-03-30T15:28:27.644Z,6.10
2019-03-30T15:30:57.728Z,5.90
2019-03-30T15:33:27.761Z,6.10
2019-03-30T15:35:57.794Z,5.40
2019-03-30T15:38:27.889Z,5.90
2019-03-30T15:40:57.920Z,6.07
2019-03-30T15:43:38.232Z,6.43
2019-03-30T15:45:59.889Z,5.40
2019-03-30T15:48:30.199Z,6.10
2019-03-30T15:51:00.196Z,5.70
2019-03-30T15:53:30.631Z,5.53
2019-03-30T15:56:01.053Z,5.80
2019-03-30T15:58:31.301Z,5.40
2019-03-30T16:01:01.351Z,5.17
2019-03-30T16:03:31.492Z,5.27
2019-03-30T16:06:01.624Z,5.70
2019-03-30T16:08:31.720Z,5.40
2019-03-30T16:11:01.815Z,5.63
2019-03-30T16:13:31.879Z,5.70
2019-03-30T16:16:01.997Z,5.83
2019-03-30T16:18:32.123Z,5.60
2019-03-30T16:21:02.248Z,6.33
2019-03-30T16:23:33.754Z,6.33
2019-03-30T16:26:03.881Z,5.33
2019-03-30T16:28:33.925Z,6.10
2019-03-30T16:31:04.216Z,5.73
2019-03-30T16:33:34.259Z,5.90
2019-03-30T16:36:04.623Z,6.63
2019-03-30T16:38:34.673Z,7.43
2019-03-30T16:41:04.791Z,6.10
2019-03-30T16:43:52.367Z,6.07
2019-03-30T16:46:22.393Z,7.03
2019-03-30T16:48:52.530Z,6.93
2019-03-30T16:51:22.631Z,7.07
2019-03-30T16:53:52.771Z,6.40
2019-03-30T16:56:22.927Z,6.10
2019-03-30T16:58:53.036Z,6.10
2019-03-30T17:01:23.097Z,7.23
2019-03-30T17:03:53.275Z,6.93
2019-03-30T17:06:24.022Z,6.00
2019-03-30T17:08:54.081Z,5.67
2019-03-30T17:11:24.172Z,5.80
2019-03-30T17:13:54.358Z,5.90
2019-03-30T17:16:24.481Z,5.73
2019-03-30T17:18:54.561Z,6.20
2019-03-30T17:21:24.599Z,10.00
2019-03-30T17:23:54.888Z,7.63
2019-03-30T17:26:24.896Z,6.97
2019-03-30T17:28:55.082Z,8.00
2019-03-30T17:31:25.788Z,9.00
2019-03-30T17:33:56.096Z,10.10
2019-03-30T17:36:45.882Z,24.13
2019-03-30T17:39:15.997Z,9.20
2019-03-30T17:41:46.193Z,12.07
2019-03-30T17:44:34.292Z,11.73
2019-03-30T17:47:04.834Z,17.20
2019-03-30T17:49:35.322Z,12.60
2019-03-30T17:52:05.513Z,11.60
2019-03-30T17:54:35.936Z,20.40
2019-03-30T17:57:06.125Z,14.60
2019-03-30T17:59:36.281Z,13.33
2019-03-30T18:02:06.738Z,15.13
2019-03-30T18:04:38.967Z,12.27
2019-03-30T18:07:08.804Z,11.03
2019-03-30T18:09:39.216Z,12.17
2019-03-30T18:12:09.648Z,9.80
2019-03-30T18:14:39.848Z,10.20
2019-03-30T18:17:09.877Z,8.87
2019-03-30T18:19:40.142Z,9.33
2019-03-30T18:22:10.241Z,10.23
2019-03-30T18:24:40.465Z,10.20
2019-03-30T18:27:10.705Z,10.10
2019-03-30T18:29:40.957Z,10.60
2019-03-30T18:32:11.084Z,10.30
2019-03-30T18:34:43.002Z,11.20
2019-03-30T18:37:13.482Z,10.50
2019-03-30T18:40:01.218Z,12.40
2019-03-30T18:42:32.401Z,12.53
2019-03-30T18:45:03.637Z,13.07
2019-03-30T18:47:33.882Z,12.90
2019-03-30T18:50:04.113Z,12.40
2019-03-30T18:52:34.644Z,11.77
2019-03-30T18:55:04.811Z,11.50
2019-03-30T18:57:34.969Z,11.50
2019-03-30T19:00:05.653Z,12.60
2019-03-30T19:02:35.953Z,20.13
2019-03-30T19:05:06.200Z,11.27
2019-03-30T19:07:53.828Z,12.70
2019-03-30T19:10:24.141Z,11.97
2019-03-30T19:12:54.260Z,42.10
2019-03-30T19:15:24.437Z,21.67
2019-03-30T19:17:54.889Z,18.87
2019-03-30T19:20:25.164Z,16.10
2019-03-30T19:22:55.410Z,16.10
2019-03-30T19:25:25.459Z,19.83
2019-03-30T19:27:55.851Z,15.13
2019-03-30T19:30:26.141Z,11.13
2019-03-30T19:32:56.604Z,8.93
2019-03-30T19:35:27.037Z,8.87
2019-03-30T19:37:57.161Z,10.13
2019-03-30T19:40:28.441Z,10.27
2019-03-30T19:42:58.576Z,9.90
2019-03-30T19:45:28.710Z,10.57
2019-03-30T19:47:58.970Z,11.30
2019-03-30T19:50:29.545Z,11.73
2019-03-30T19:52:59.683Z,11.20
2019-03-30T19:55:29.853Z,8.97
2019-03-30T19:58:00.094Z,9.43
2019-03-30T20:00:30.240Z,9.13
2019-03-30T20:03:00.556Z,9.50
2019-03-30T20:05:30.623Z,9.40
2019-03-30T20:08:11.581Z,9.80
2019-03-30T20:10:32.585Z,11.57
2019-03-30T20:13:02.693Z,12.17
2019-03-30T20:17:56.955Z,13.27
2019-03-30T20:20:27.031Z,14.20
2019-03-30T20:22:57.025Z,12.77
2019-03-30T20:25:27.069Z,24.00
2019-03-30T20:27:57.128Z,27.50
2019-03-30T20:30:27.191Z,16.30
2019-03-30T20:32:57.176Z,15.73
2019-03-30T20:35:27.597Z,14.23
2019-03-30T20:37:57.625Z,14.00
2019-03-30T20:40:27.595Z,11.57
2019-03-30T20:42:57.654Z,11.30
2019-03-30T20:45:27.597Z,9.80
2019-03-30T20:47:57.714Z,9.63
2019-03-30T20:50:27.714Z,10.17
2019-03-30T20:52:57.719Z,10.33
2019-03-30T20:55:27.736Z,10.40
2019-03-30T20:57:57.794Z,10.63
2019-03-30T21:00:27.797Z,10.70
2019-03-30T21:02:57.779Z,9.90
2019-03-30T21:05:27.810Z,10.43
2019-03-30T21:07:57.886Z,11.10
2019-03-30T21:10:27.893Z,10.40
2019-03-30T21:12:58.225Z,10.77
2019-03-30T21:15:28.286Z,12.10
2019-03-30T21:17:58.305Z,20.90
2019-03-30T21:20:28.330Z,14.63
2019-03-30T21:22:58.901Z,11.77
2019-03-30T21:25:29.041Z,17.03
2019-03-30T21:27:59.200Z,12.90
2019-03-30T21:30:29.354Z,10.67
2019-03-30T21:32:59.591Z,10.50
2019-03-30T21:35:29.766Z,10.93
2019-03-30T21:37:59.897Z,10.23
2019-03-30T21:40:30.104Z,9.70
2019-03-30T21:43:00.266Z,9.90
2019-03-30T21:45:31.808Z,10.10
2019-03-30T21:48:01.956Z,10.30
2019-03-30T21:50:32.117Z,11.73
2019-03-30T21:53:02.259Z,10.93
2019-03-30T21:55:32.454Z,11.40
2019-03-30T21:58:02.657Z,9.97
2019-03-30T22:00:37.320Z,10.53
2019-03-30T22:03:07.511Z,10.80
2019-03-30T22:05:37.709Z,9.97
2019-03-30T22:08:08.077Z,11.70
2019-03-30T22:10:38.120Z,10.47
2019-03-30T22:13:08.546Z,10.90
2019-03-30T22:15:38.724Z,10.53
2019-03-30T22:18:08.905Z,11.20
2019-03-30T22:20:38.957Z,10.97
2019-03-30T22:23:09.180Z,12.87
2019-03-30T22:25:39.313Z,11.10
2019-03-30T22:28:09.469Z,11.00
2019-03-30T22:30:39.601Z,12.73
2019-03-30T22:33:09.799Z,13.67
2019-03-30T22:35:40.236Z,14.90
2019-03-30T22:38:10.406Z,14.70
2019-03-30T22:40:41.602Z,15.00
2019-03-30T22:43:11.848Z,16.87
2019-03-30T22:45:41.975Z,18.07
2019-03-30T22:48:12.211Z,18.13
2019-03-30T22:50:42.288Z,18.47
2019-03-30T22:53:12.439Z,18.47
2019-03-30T22:55:42.524Z,17.17
2019-03-30T22:58:12.716Z,15.63
2019-03-30T23:01:01.802Z,16.53
2019-03-30T23:03:31.931Z,15.40
2019-03-30T23:06:02.039Z,15.20
2019-03-30T23:08:32.269Z,14.87
2019-03-30T23:11:02.393Z,19.90
2019-03-30T23:13:33.538Z,18.87
2019-03-30T23:16:03.698Z,19.60
2019-03-30T23:18:34.033Z,18.60
2019-03-30T23:21:04.164Z,16.40
2019-03-30T23:23:34.389Z,15.47
2019-03-30T23:26:06.317Z,15.77
2019-03-30T23:28:36.551Z,14.57
2019-03-30T23:31:06.626Z,13.70
2019-03-30T23:33:39.314Z,12.90
2019-03-30T23:36:09.392Z,12.90
2019-03-30T23:38:39.547Z,12.33
2019-03-30T23:41:09.566Z,12.00
2019-03-30T23:43:39.689Z,11.50
2019-03-30T23:46:09.793Z,11.70
2019-03-30T23:48:39.996Z,11.70
2019-03-30T23:51:10.546Z,12.10
2019-03-30T23:53:40.674Z,11.35
2019-03-30T23:56:24.479Z,11.70
2019-03-30T23:58:55.048Z,10.47
